Time;durP1;ratioP1;P1;durP2;ratioP2;P2;SDS_P1;SDS_P2;PMS_P1;PMS_P2;Temp;Humidity;BMP_temperature;BMP_pressure;BME280_temperature;BME280_humidity;BME280_pressure;Samples;Min_cycle;Max_cycle;Signal;HPM_P1;HPM_P2
2020/12/24 00:00:37;;;;;;;39.20;18.48;;;;;;;-0.58;94.11;100280.63;1745275;82;21607;-64
2020/12/24 00:03:04;;;;;;;45.48;19.92;;;;;;;-0.64;94.29;100274.55;1745139;82;21602;-64
2020/12/24 00:05:33;;;;;;;45.52;20.32;;;;;;;-0.66;94.31;100264.61;1741805;79;21569;-64
2020/12/24 00:08:01;;;;;;;38.78;16.65;;;;;;;-0.62;94.26;100268.11;1711955;82;22188;-64
2020/12/24 00:10:28;;;;;;;37.70;16.67;;;;;;;-0.64;94.26;100253.86;1703061;84;21596;-64
2020/12/24 00:12:56;;;;;;;41.02;17.95;;;;;;;-0.64;94.38;100260.33;1703200;84;21152;-64
2020/12/24 00:15:25;;;;;;;41.68;18.50;;;;;;;-0.65;94.40;100257.28;1703240;82;21235;-63
2020/12/24 00:17:53;;;;;;;44.58;19.65;;;;;;;-0.61;94.33;100257.33;1703140;84;21163;-64
2020/12/24 00:20:21;;;;;;;41.20;17.65;;;;;;;-0.61;94.37;100257.33;1703133;84;21190;-64
2020/12/24 00:22:48;;;;;;;48.87;20.90;;;;;;;-0.62;94.43;100265.52;1703061;81;21191;-64
2020/12/24 00:25:16;;;;;;;35.58;17.20;;;;;;;-0.60;94.46;100264.22;1703064;84;21191;-65
2020/12/24 00:27:43;;;;;;;29.45;15.08;;;;;;;-0.58;94.36;100258.64;1703051;82;21756;-64
2020/12/24 00:30:11;;;;;;;40.12;18.85;;;;;;;-0.58;94.44;100254.77;1702983;84;21127;-67
2020/12/24 00:32:39;;;;;;;43.00;20.23;;;;;;;-0.59;94.46;100246.58;1748249;79;22127;-76
2020/12/24 00:35:06;;;;;;;41.68;18.75;;;;;;;-0.59;94.42;100245.28;1790027;79;21119;-75
2020/12/24 00:37:34;;;;;;;45.75;19.30;;;;;;;-0.59;94.45;100240.11;1794751;80;21056;-80
2020/12/24 00:40:05;;;;;;;34.30;17.87;;;;;;;-0.59;94.51;100234.94;1777244;78;21086;-81
2020/12/24 00:42:34;;;;;;;38.35;16.20;;;;;;;-0.63;94.67;100231.44;1764317;78;21082;-79
2020/12/24 00:45:01;;;;;;;51.30;23.20;;;;;;;-0.61;94.63;100221.12;1764074;79;21376;-79
2020/12/24 00:47:30;;;;;;;37.80;16.27;;;;;;;-0.59;94.57;100220.71;1764090;79;21161;-78
2020/12/24 00:49:59;;;;;;;35.48;16.40;;;;;;;-0.56;94.64;100223.31;1764096;81;21180;-77
2020/12/24 00:52:30;;;;;;;37.03;16.17;;;;;;;-0.57;94.68;100233.23;1732536;81;21074;-79
2020/12/24 00:55:00;;;;;;;37.00;17.00;;;;;;;-0.57;94.64;100244.88;1764076;78;21043;-77
2020/12/24 00:57:29;;;;;;;41.98;18.57;;;;;;;-0.55;94.60;100252.20;1763760;78;21217;-76
2020/12/24 00:59:57;;;;;;;40.92;16.93;;;;;;;-0.57;94.66;100254.79;1761473;81;22950;-79
2020/12/24 01:02:25;;;;;;;45.25;19.90;;;;;;;-0.59;94.68;100251.31;1761896;81;21146;-77
2020/12/24 01:04:55;;;;;;;32.75;15.25;;;;;;;-0.58;94.62;100249.59;1763305;81;21066;-80
2020/12/24 01:07:32;;;;;;;42.40;19.55;;;;;;;-0.58;94.64;100256.06;1718944;81;22323;-79
2020/12/24 01:10:08;;;;;;;44.33;19.07;;;;;;;-0.57;94.73;100259.11;1630121;87;21710;-63
2020/12/24 01:12:37;;;;;;;46.75;20.52;;;;;;;-0.57;94.77;100257.81;1614852;87;21211;-63
2020/12/24 01:15:08;;;;;;;43.45;18.55;;;;;;;-0.52;94.68;100257.42;1630127;88;21290;-64
2020/12/24 01:17:44;;;;;;;38.97;15.07;;;;;;;-0.47;94.63;100244.10;1850465;77;22741;-64
2020/12/24 01:20:14;;;;;;;35.98;17.85;;;;;;;-0.54;94.69;100244.89;1817735;78;21183;-64
2020/12/24 01:22:42;;;;;;;35.15;15.68;;;;;;;-0.55;94.72;100250.91;1812707;79;21300;-64
2020/12/24 01:25:09;;;;;;;35.60;17.32;;;;;;;-0.56;94.74;100251.77;1812780;79;21159;-64
2020/12/24 01:27:38;;;;;;;32.70;14.15;;;;;;;-0.56;94.72;100260.83;1812924;79;21170;-63
2020/12/24 01:30:05;;;;;;;37.28;15.45;;;;;;;-0.60;94.74;100264.22;1812972;79;21151;-63
2020/12/24 01:32:34;;;;;;;45.03;19.77;;;;;;;-0.57;94.77;100266.44;1813377;77;21618;-63
2020/12/24 01:35:01;;;;;;;47.70;18.80;;;;;;;-0.55;94.76;100264.73;1813153;79;22292;-62
2020/12/24 01:40:11;;;;;;;35.53;16.00;;;;;;;-0.52;94.81;100256.13;1775424;79;22549;-62
2020/12/24 01:42:39;;;;;;;36.25;16.02;;;;;;;-0.59;94.94;100250.45;1748039;82;21187;-63
2020/12/24 01:45:07;;;;;;;41.18;17.52;;;;;;;-0.58;94.89;100258.21;1747941;82;22176;-62
2020/12/24 01:47:35;;;;;;;39.70;16.20;;;;;;;-0.54;94.84;100253.95;1747732;81;21207;-62
2020/12/24 01:50:04;;;;;;;37.75;16.60;;;;;;;-0.52;94.88;100247.08;1748112;82;21128;-63
2020/12/24 01:52:39;;;;;;;41.90;18.40;;;;;;;-0.55;94.94;100247.02;1722005;82;22170;-63
2020/12/24 01:55:09;;;;;;;42.27;18.60;;;;;;;-0.54;94.92;100253.95;1718073;82;21645;-62
2020/12/24 01:57:38;;;;;;;42.48;20.15;;;;;;;-0.53;94.85;100251.39;1718119;83;21374;-63
2020/12/24 02:00:07;;;;;;;39.85;17.50;;;;;;;-0.53;94.86;100250.50;1717884;83;21598;-62
2020/12/24 02:02:37;;;;;;;42.90;16.80;;;;;;;-0.53;94.92;100247.91;1709172;82;21648;-63
2020/12/24 02:05:05;;;;;;;40.58;17.57;;;;;;;-0.54;94.96;100251.36;1702857;82;21161;-62
2020/12/24 02:07:33;;;;;;;42.05;17.32;;;;;;;-0.52;94.92;100256.13;1703511;84;21267;-63
2020/12/24 02:10:02;;;;;;;40.25;18.37;;;;;;;-0.54;94.94;100245.76;1703613;83;22293;-62
2020/12/24 02:12:30;;;;;;;38.00;16.52;;;;;;;-0.55;94.91;100240.56;1703486;84;21644;-62
2020/12/24 02:14:57;;;;;;;39.20;17.95;;;;;;;-0.56;94.98;100234.95;1694128;83;21278;-62
2020/12/24 02:17:26;;;;;;;42.75;19.25;;;;;;;-0.57;95.05;100235.83;1694864;84;21346;-62
2020/12/24 02:19:53;;;;;;;38.60;16.93;;;;;;;-0.55;95.01;100236.28;1694879;83;21233;-62
2020/12/24 02:22:26;;;;;;;39.83;16.85;;;;;;;-0.66;94.98;100219.34;1684342;83;23367;-62
2020/12/24 02:24:54;;;;;;;39.95;17.15;;;;;;;-0.57;95.04;100239.27;1661354;85;21138;-62
2020/12/24 02:27:22;;;;;;;36.50;16.87;;;;;;;-0.57;95.05;100239.70;1661286;86;21250;-63
2020/12/24 02:29:49;;;;;;;33.90;16.55;;;;;;;-0.53;95.00;100229.80;1661224;85;21648;-62
2020/12/24 02:32:17;;;;;;;38.40;17.50;;;;;;;-0.53;94.95;100229.80;1702159;83;21637;-62
2020/12/24 02:34:46;;;;;;;42.17;18.25;;;;;;;-0.53;95.02;100234.97;1715533;83;22131;-61
2020/12/24 02:37:14;;;;;;;37.20;16.23;;;;;;;-0.54;95.04;100236.70;1715199;83;21215;-62
2020/12/24 02:39:43;;;;;;;42.45;18.52;;;;;;;-0.53;95.06;100241.44;1702281;83;21226;-62
2020/12/24 02:42:10;;;;;;;34.78;16.15;;;;;;;-0.53;94.99;100235.87;1718628;83;21211;-62
2020/12/24 02:44:38;;;;;;;31.45;14.05;;;;;;;-0.52;94.98;100239.31;1718788;83;21595;-63
2020/12/24 02:47:06;;;;;;;44.23;19.15;;;;;;;-0.50;95.03;100235.03;1718726;83;21203;-63
2020/12/24 02:49:35;;;;;;;38.02;17.23;;;;;;;-0.48;95.08;100238.50;1716867;83;21180;-62
2020/12/24 02:52:04;;;;;;;41.83;16.50;;;;;;;-0.47;94.96;100236.34;1718346;83;21647;-64
2020/12/24 02:54:33;;;;;;;42.25;18.50;;;;;;;-0.46;94.93;100239.35;1718300;83;21462;-62
2020/12/24 02:57:01;;;;;;;45.98;17.90;;;;;;;-0.48;94.92;100239.80;1718279;83;21721;-62
2020/12/24 02:59:29;;;;;;;44.73;19.60;;;;;;;-0.49;94.99;100244.51;1681194;85;21601;-62
2020/12/24 03:01:57;;;;;;;42.73;19.07;;;;;;;-0.46;94.97;100247.11;1718257;83;21741;-63
2020/12/24 03:04:24;;;;;;;48.38;20.55;;;;;;;-0.47;94.96;100238.92;1681140;85;21206;-61
2020/12/24 03:06:52;;;;;;;44.35;18.60;;;;;;;-0.47;94.98;100241.52;1718139;83;21183;-63
2020/12/24 03:09:20;;;;;;;49.13;21.33;;;;;;;-0.49;95.06;100241.92;1718008;83;21198;-61
2020/12/24 03:11:51;;;;;;;49.60;20.10;;;;;;;-0.48;95.05;100248.84;1681234;85;21404;-61
2020/12/24 03:14:19;;;;;;;44.35;19.87;;;;;;;-0.46;95.00;100251.00;1718293;83;21618;-62
2020/12/24 03:16:47;;;;;;;44.35;18.70;;;;;;;-0.45;95.02;100247.58;1718088;83;21586;-62
2020/12/24 03:19:14;;;;;;;45.35;18.85;;;;;;;-0.47;95.05;100241.08;1718186;83;21677;-62
2020/12/24 03:21:42;;;;;;;30.77;14.10;;;;;;;-0.45;95.05;100235.93;1718134;83;21175;-63
2020/12/24 03:24:10;;;;;;;57.75;21.95;;;;;;;-0.42;94.99;100233.36;1681051;85;21222;-62
2020/12/24 03:26:37;;;;;;;39.05;16.95;;;;;;;-0.44;94.98;100225.61;1718113;83;21206;-62
2020/12/24 03:29:05;;;;;;;44.80;17.35;;;;;;;-0.48;95.07;100221.69;1718256;83;22177;-62
2020/12/24 03:31:35;;;;;;;48.03;18.30;;;;;;;-0.52;95.09;100216.89;1712317;83;21692;-61
2020/12/24 03:34:06;;;;;;;42.73;17.02;;;;;;;-0.51;95.07;100207.41;1679438;83;21987;-62
2020/12/24 03:36:35;;;;;;;41.45;17.75;;;;;;;-0.52;95.20;100206.55;1669010;83;21380;-61
2020/12/24 03:39:03;;;;;;;44.70;17.55;;;;;;;-0.53;95.25;100202.64;1682190;83;21224;-62
2020/12/24 03:41:33;;;;;;;41.95;17.90;;;;;;;-0.54;95.27;100208.68;1656969;86;21217;-62
2020/12/24 03:44:01;;;;;;;40.38;17.37;;;;;;;-0.54;95.21;100203.50;1661903;86;21655;-62
2020/12/24 03:46:28;;;;;;;37.63;15.45;;;;;;;-0.57;95.29;100202.20;1656949;86;21229;-65
2020/12/24 03:48:56;;;;;;;34.33;14.58;;;;;;;-0.58;95.35;100206.91;1665054;84;21389;-62
2020/12/24 03:51:33;;;;;;;36.03;16.52;;;;;;;-0.57;95.30;100202.20;1704409;82;21577;-64
2020/12/24 03:54:01;;;;;;;29.65;13.60;;;;;;;-0.57;95.31;100203.48;1704732;84;21135;-61
2020/12/24 03:56:29;;;;;;;36.40;16.07;;;;;;;-0.61;95.36;100200.42;1704647;84;21204;-62
2020/12/24 03:58:57;;;;;;;38.53;16.45;;;;;;;-0.65;95.50;100213.30;1704824;84;21638;-61
2020/12/24 04:01:25;;;;;;;32.05;13.72;;;;;;;-0.64;95.52;100206.44;1704528;84;21682;-62
2020/12/24 04:03:56;;;;;;;33.18;13.62;;;;;;;-0.65;95.50;100197.78;1704735;83;21139;-63
2020/12/24 04:06:29;;;;;;;33.53;14.28;;;;;;;-0.64;95.58;100190.48;1691875;84;21269;-62
2020/12/24 04:08:56;;;;;;;35.23;16.02;;;;;;;-0.66;95.63;100185.72;1661779;86;21172;-63
2020/12/24 04:11:25;;;;;;;36.10;17.32;;;;;;;-0.67;95.68;100185.70;1657146;86;21728;-61
2020/12/24 04:13:52;;;;;;;36.83;16.82;;;;;;;-0.66;95.73;100180.55;1662098;86;22040;-63
2020/12/24 04:16:21;;;;;;;36.75;16.30;;;;;;;-0.67;95.80;100185.70;1657038;86;21707;-62
2020/12/24 04:18:49;;;;;;;36.33;15.78;;;;;;;-0.71;95.95;100177.06;1662007;86;22273;-62
2020/12/24 04:21:16;;;;;;;35.15;16.07;;;;;;;-0.69;95.90;100180.53;1657016;86;21766;-62
2020/12/24 04:23:44;;;;;;;39.05;17.37;;;;;;;-0.71;96.00;100179.64;1662030;86;21673;-62
2020/12/24 04:26:22;;;;;;;41.83;17.48;;;;;;;-0.72;96.12;100177.03;1657224;86;21614;-61
2020/12/24 04:28:50;;;;;;;34.80;14.55;;;;;;;-0.72;96.13;100175.31;1662009;86;21180;-62
2020/12/24 04:31:18;;;;;;;35.73;15.10;;;;;;;-0.73;96.20;100176.17;1657049;86;21176;-64
2020/12/24 04:33:45;;;;;;;39.65;17.07;;;;;;;-0.72;96.25;100175.31;1661995;86;21196;-62
2020/12/24 04:36:14;;;;;;;32.10;13.93;;;;;;;-0.73;96.34;100174.02;1651846;84;21303;-62
2020/12/24 04:38:42;;;;;;;39.42;17.62;;;;;;;-0.70;96.35;100183.95;1662825;86;22372;-63
2020/12/24 04:41:11;;;;;;;36.50;15.68;;;;;;;-0.72;96.40;100181.77;1656662;86;21215;-63
2020/12/24 04:43:39;;;;;;;43.73;18.12;;;;;;;-0.68;96.35;100182.69;1651548;83;21730;-62
2020/12/24 04:46:08;;;;;;;33.73;15.68;;;;;;;-0.66;96.32;100175.38;1656542;86;21242;-62
2020/12/24 04:48:36;;;;;;;40.63;17.55;;;;;;;-0.69;96.48;100173.17;1629446;85;21223;-62
2020/12/24 04:51:05;;;;;;;38.60;15.95;;;;;;;-0.72;96.52;100163.67;1680911;85;21360;-62
2020/12/24 04:53:33;;;;;;;40.55;17.75;;;;;;;-0.69;96.49;100170.19;1656182;85;22196;-62
2020/12/24 04:56:05;;;;;;;38.92;16.77;;;;;;;-0.67;96.46;100171.47;1639854;85;21215;-62
2020/12/24 04:58:47;;;;;;;40.13;16.00;;;;;;;-0.62;96.47;100168.92;1888190;75;22549;-61
2020/12/24 05:01:17;;;;;;;31.90;14.23;;;;;;;-0.67;96.47;100171.07;1858860;76;21146;-63
2020/12/24 05:03:45;;;;;;;40.15;16.65;;;;;;;-0.62;96.44;100168.92;1821254;78;21540;-63
2020/12/24 05:06:17;;;;;;;44.38;18.32;;;;;;;-0.62;96.48;100171.52;1821153;78;21949;-63
2020/12/24 05:08:56;;;;;;;43.05;18.57;;;;;;;-0.64;96.52;100180.14;1787277;80;21523;-61
2020/12/24 05:11:32;;;;;;;33.70;14.87;;;;;;;-0.64;96.53;100177.55;1820859;78;21693;-62
2020/12/24 05:14:28;;;;;;;38.17;16.25;;;;;;;-0.62;96.54;100177.98;1821265;78;21176;-62
2020/12/24 05:17:06;;;;;;;42.05;17.87;;;;;;;-0.63;96.56;100171.95;1820214;78;21194;-63
2020/12/24 05:19:49;;;;;;;33.73;14.70;;;;;;;-0.59;96.47;100174.15;1788920;80;21618;-64
2020/12/24 05:22:19;;;;;;;41.28;15.93;;;;;;;-0.58;96.49;100170.26;1788764;80;21572;-63
2020/12/24 05:24:47;;;;;;;36.35;15.70;;;;;;;-0.59;96.61;100180.18;1788895;80;21160;-63
2020/12/24 05:27:20;;;;;;;36.03;16.87;;;;;;;-0.59;96.59;100176.73;1788723;80;21164;-63
2020/12/24 05:29:51;;;;;;;28.05;13.08;;;;;;;-0.58;96.54;100170.26;1788770;80;21340;-62
2020/12/24 05:32:29;;;;;;;38.55;16.82;;;;;;;-0.56;96.53;100173.73;1787870;80;21140;-61
2020/12/24 05:35:08;;;;;;;31.62;14.70;;;;;;;-0.56;96.54;100167.70;1788820;80;21646;-61
2020/12/24 05:37:36;;;;;;;33.65;15.75;;;;;;;-0.54;96.45;100167.29;1788792;80;22147;-62
2020/12/24 05:40:23;;;;;;;32.00;14.87;;;;;;;-0.53;96.43;100169.00;1788882;80;21180;-61
2020/12/24 05:42:58;;;;;;;35.28;16.05;;;;;;;-0.56;96.52;100169.85;1788871;80;21208;-62
2020/12/24 05:45:28;;;;;;;32.20;15.20;;;;;;;-0.54;96.51;100171.17;1788744;80;21618;-62
2020/12/24 05:48:12;;;;;;;31.68;14.40;;;;;;;-0.55;96.53;100172.89;1788837;80;21204;-62
2020/12/24 05:50:42;;;;;;;34.48;15.32;;;;;;;-0.53;96.48;100173.78;1755842;80;21171;-63
2020/12/24 05:53:16;;;;;;;34.78;17.40;;;;;;;-0.53;96.52;100168.61;1747111;82;21183;-62
2020/12/24 05:55:44;;;;;;;42.58;17.85;;;;;;;-0.51;96.55;100184.13;1746976;82;21296;-63
2020/12/24 05:58:11;;;;;;;33.55;16.37;;;;;;;-0.55;96.62;100179.36;1753705;78;21566;-63
2020/12/24 06:00:41;;;;;;;35.63;16.45;;;;;;;-0.54;96.59;100178.93;1753641;81;21798;-62
2020/12/24 06:03:15;;;;;;;38.48;18.25;;;;;;;-0.54;96.62;100189.28;1751152;81;21188;-62
2020/12/24 06:06:08;;;;;;;42.17;17.65;;;;;;;-0.55;96.61;100185.83;1750683;81;21164;-62
2020/12/24 06:08:36;;;;;;;35.28;16.67;;;;;;;-0.53;96.58;100185.82;1750326;81;21200;-62
2020/12/24 06:11:08;;;;;;;37.85;18.48;;;;;;;-0.51;96.65;100180.23;1725061;82;21207;-64
2020/12/24 06:13:43;;;;;;;33.83;15.72;;;;;;;-0.49;96.57;100187.16;1749885;82;21168;-62
2020/12/24 06:16:12;;;;;;;33.98;16.75;;;;;;;-0.46;96.49;100185.02;1750188;82;21164;-68
2020/12/24 06:18:43;;;;;;;39.33;18.00;;;;;;;-0.49;96.48;100178.10;1771949;79;21166;-66
2020/12/24 06:21:18;;;;;;;41.88;17.77;;;;;;;-0.48;96.52;100176.41;1794639;79;21385;-65
2020/12/24 06:23:50;;;;;;;40.33;17.48;;;;;;;-0.49;96.55;100172.93;1794380;79;21559;-66
2020/12/24 06:26:21;;;;;;;34.23;14.07;;;;;;;-0.47;96.49;100161.31;1794409;79;21190;-65
2020/12/24 06:28:54;;;;;;;35.55;13.93;;;;;;;-0.46;96.47;100165.61;1794615;79;21694;-65
2020/12/24 06:31:22;;;;;;;31.95;14.58;;;;;;;-0.44;96.49;100154.86;1776253;79;21167;-66
2020/12/24 06:33:49;;;;;;;28.65;14.07;;;;;;;-0.46;96.53;100150.09;1779987;79;21385;-66
2020/12/24 06:36:36;;;;;;;34.38;14.25;;;;;;;-0.44;96.48;100150.97;1794408;79;22267;-66
2020/12/24 06:39:04;;;;;;;26.02;13.58;;;;;;;-0.43;96.42;100143.67;1794398;79;21139;-66
2020/12/24 06:41:39;;;;;;;28.52;11.80;;;;;;;-0.45;96.42;100149.25;1794349;79;21169;-67
2020/12/24 06:44:10;;;;;;;30.20;13.35;;;;;;;-0.46;96.37;100155.27;1794572;79;21134;-65
2020/12/24 06:46:58;;;;;;;24.45;12.45;;;;;;;-0.46;96.34;100151.38;1794578;79;21338;-65
2020/12/24 06:49:33;;;;;;;27.85;12.70;;;;;;;-0.47;96.32;100155.70;1779469;79;21246;-65
2020/12/24 06:52:00;;;;;;;30.00;13.78;;;;;;;-0.47;96.31;100143.20;1762847;81;21164;-66
2020/12/24 06:54:29;;;;;;;34.20;16.50;;;;;;;-0.51;96.36;100147.91;1765496;79;21626;-67
2020/12/24 06:57:21;;;;;;;32.03;15.45;;;;;;;-0.49;96.34;100150.08;1794515;79;21641;-65
2020/12/24 06:59:51;;;;;;;34.83;16.40;;;;;;;-0.50;96.37;100149.66;1794603;79;21390;-65
2020/12/24 07:02:25;;;;;;;31.90;16.83;;;;;;;-0.49;96.40;100153.95;1719404;81;21178;-66
2020/12/24 07:04:53;;;;;;;33.90;16.97;;;;;;;-0.48;96.40;100150.53;1761109;80;21348;-67
2020/12/24 07:07:44;;;;;;;33.53;15.48;;;;;;;-0.48;96.40;100144.06;1720675;81;21142;-66
2020/12/24 07:10:49;;;;;;;30.75;13.45;;;;;;;-0.47;96.44;100147.08;1758636;81;21174;-66
2020/12/24 07:13:39;;;;;;;32.00;14.70;;;;;;;-0.45;96.43;100145.37;1752940;81;21399;-66
2020/12/24 07:16:09;;;;;;;35.65;16.57;;;;;;;-0.47;96.46;100132.85;1760844;81;21183;-66
2020/12/24 07:18:39;;;;;;;32.00;15.05;;;;;;;-0.45;96.48;100137.61;1733053;81;21161;-65
2020/12/24 07:21:09;;;;;;;34.10;16.32;;;;;;;-0.43;96.44;100139.36;1758793;81;21589;-67
2020/12/24 07:23:40;;;;;;;34.18;16.67;;;;;;;-0.42;96.48;100132.45;1761955;81;21203;-67
2020/12/24 07:26:10;;;;;;;36.30;16.45;;;;;;;-0.39;96.43;100133.79;1761465;81;21356;-66
2020/12/24 07:28:39;;;;;;;;;;;;;;;-0.39;96.39;100133.79;1765491;81;21167;-66
2020/12/24 07:31:09;;;;;;;39.83;17.30;;;;;;;-0.35;96.36;100134.23;1739460;81;20247;-65
2020/12/24 07:33:45;;;;;;;36.20;15.90;;;;;;;-0.36;96.36;100133.80;1733629;81;21204;-66
2020/12/24 07:36:13;;;;;;;33.18;15.43;;;;;;;-0.33;96.35;100132.52;1762476;81;21207;-65
2020/12/24 07:38:41;;;;;;;41.48;17.77;;;;;;;-0.34;96.37;100130.80;1724168;82;21403;-65
2020/12/24 07:41:16;;;;;;;33.13;16.37;;;;;;;-0.31;96.38;100137.72;1721822;83;21152;-65
2020/12/24 07:43:44;;;;;;;37.00;17.55;;;;;;;-0.31;96.32;100141.16;1733061;82;21196;-66
2020/12/24 07:46:14;;;;;;;33.33;16.20;;;;;;;-0.29;96.31;100144.63;1740395;82;21603;-65
2020/12/24 07:48:43;;;;;;;36.23;17.57;;;;;;;-0.27;96.28;100146.81;1738448;82;21136;-66
2020/12/24 07:51:11;;;;;;;33.50;16.77;;;;;;;-0.24;96.26;100143.38;1702297;83;22259;-65
2020/12/24 07:53:39;;;;;;;42.38;18.00;;;;;;;-0.28;96.23;100141.17;1735687;82;21498;-67
2020/12/24 07:56:11;;;;;;;33.50;14.95;;;;;;;-0.31;96.28;100135.98;1736043;80;21193;-66
2020/12/24 07:58:41;;;;;;;32.88;15.28;;;;;;;-0.32;96.24;100139.45;1732170;81;21666;-67
2020/12/24 08:01:09;;;;;;;32.33;13.55;;;;;;;-0.30;96.22;100140.33;1733679;82;21221;-65
2020/12/24 08:03:36;;;;;;;32.58;15.38;;;;;;;-0.28;96.20;100128.23;1687696;81;26913;-65
2020/12/24 08:06:06;;;;;;;29.07;14.83;;;;;;;-0.30;96.22;100135.15;1707067;82;21259;-66
2020/12/24 08:08:37;;;;;;;30.83;13.53;;;;;;;-0.27;96.25;100136.45;1696310;84;21199;-67
2020/12/24 08:11:08;;;;;;;33.23;14.83;;;;;;;-0.25;96.22;100131.30;1696140;84;21242;-67
2020/12/24 08:13:36;;;;;;;29.20;13.45;;;;;;;-0.23;96.16;100138.62;1687661;85;21199;-67
2020/12/24 08:16:04;;;;;;;30.05;13.85;;;;;;;-0.21;96.13;100130.44;1687850;85;22135;-65
2020/12/24 08:18:39;;;;;;;34.08;14.60;;;;;;;-0.22;96.09;100136.05;1680813;83;21627;-64
2020/12/24 08:21:23;;;;;;;32.67;14.47;;;;;;;-0.18;96.06;100133.47;1703670;83;21227;-65
2020/12/24 08:23:52;;;;;;;32.05;13.98;;;;;;;-0.15;95.93;100133.52;1705313;82;21167;-63
2020/12/24 08:26:21;;;;;;;35.30;16.45;;;;;;;-0.16;95.86;100139.53;1730666;80;21212;-65
2020/12/24 08:28:53;;;;;;;32.23;15.88;;;;;;;-0.18;95.78;100123.12;1735086;81;21974;-66
2020/12/24 08:31:24;;;;;;;33.78;15.25;;;;;;;-0.18;95.73;100121.83;1743748;81;21603;-65
2020/12/24 08:33:54;;;;;;;;;;;;;;;-0.18;95.73;100127.00;1738578;78;22047;-72
2020/12/24 08:36:23;;;;;;;39.78;18.65;;;;;;;-0.19;95.71;100119.67;1747031;81;20261;-73
2020/12/24 08:38:50;;;;;;;37.17;18.05;;;;;;;-0.23;95.78;100117.52;1754005;81;21171;-73
2020/12/24 08:41:21;;;;;;;36.73;18.10;;;;;;;-0.21;95.78;100120.09;1738206;81;22361;-72
2020/12/24 08:43:57;;;;;;;41.97;18.37;;;;;;;-0.13;95.74;100117.56;1884874;75;22584;-74
2020/12/24 08:46:24;;;;;;;45.23;18.73;;;;;;;-0.17;95.76;100124.87;1829998;77;21370;-73
2020/12/24 08:48:52;;;;;;;55.35;21.40;;;;;;;-0.15;95.82;100121.86;1825245;78;23001;-73
2020/12/24 08:51:20;;;;;;;43.75;19.80;;;;;;;-0.11;95.73;100115.42;1824758;78;21691;-72
2020/12/24 08:53:49;;;;;;;38.60;17.02;;;;;;;-0.10;95.65;100118.87;1832947;77;21170;-72
2020/12/24 08:56:18;;;;;;;40.75;19.27;;;;;;;-0.11;95.57;100117.16;1829445;77;21158;-72
2020/12/24 08:58:50;;;;;;;44.95;19.10;;;;;;;-0.12;95.57;100106.34;1825344;78;21107;-73
2020/12/24 09:01:20;;;;;;;41.50;18.57;;;;;;;-0.13;95.56;100109.37;1835826;77;21346;-73
2020/12/24 09:03:48;;;;;;;43.33;19.82;;;;;;;-0.12;95.53;100107.64;1838932;77;21138;-72
2020/12/24 09:06:16;;;;;;;39.88;18.73;;;;;;;-0.17;95.58;100089.92;1824604;78;21205;-72
2020/12/24 09:08:50;;;;;;;33.45;15.93;;;;;;;-0.12;95.57;100089.52;1824436;78;21197;-72
2020/12/24 09:11:28;;;;;;;34.40;15.90;;;;;;;-0.16;95.49;100074.81;1824806;78;21201;-73
2020/12/24 09:14:03;;;;;;;34.58;15.78;;;;;;;-0.20;95.56;100077.84;1825187;78;21408;-73
2020/12/24 09:16:32;;;;;;;36.33;15.00;;;;;;;-0.22;95.59;100080.41;1824878;78;22156;-73
2020/12/24 09:19:06;;;;;;;33.38;16.42;;;;;;;-0.18;95.56;100079.12;1824785;78;21209;-73
2020/12/24 09:21:34;;;;;;;32.42;15.48;;;;;;;-0.20;95.52;100082.16;1825190;78;21166;-71
2020/12/24 09:24:09;;;;;;;42.27;19.27;;;;;;;-0.16;95.51;100087.76;1824162;78;21166;-74
2020/12/24 09:26:54;;;;;;;25.88;12.85;;;;;;;-0.17;95.50;100078.28;1828775;78;22237;-72
2020/12/24 09:29:27;;;;;;;31.68;15.63;;;;;;;-0.14;95.32;100084.75;1743777;78;21759;-64
2020/12/24 09:31:59;;;;;;;28.17;14.73;;;;;;;-0.16;95.18;100074.81;1694029;84;21578;-65
2020/12/24 09:34:28;;;;;;;29.85;14.65;;;;;;;-0.15;95.14;100067.07;1694275;84;21195;-64
2020/12/24 09:36:57;;;;;;;37.38;16.82;;;;;;;-0.10;95.10;100060.19;1737417;82;21705;-65
2020/12/24 09:39:25;;;;;;;31.35;12.78;;;;;;;-0.08;95.07;100057.62;1738478;82;21401;-64
2020/12/24 09:41:53;;;;;;;28.77;14.15;;;;;;;-0.10;94.83;100078.75;1736044;81;21242;-63
2020/12/24 09:44:21;;;;;;;24.40;11.30;;;;;;;-0.08;94.71;100075.73;1717438;82;21213;-65
2020/12/24 09:46:49;;;;;;;27.87;15.08;;;;;;;-0.11;94.62;100069.27;1709454;83;21603;-64
2020/12/24 09:49:18;;;;;;;26.57;12.60;;;;;;;-0.10;94.61;100074.86;1709443;83;21185;-63
2020/12/24 09:51:47;;;;;;;28.27;14.03;;;;;;;-0.10;94.57;100072.27;1709473;83;22084;-64
2020/12/24 09:54:16;;;;;;;;;;;;;;;-0.12;94.43;100067.52;1710978;83;21150;-64
2020/12/24 09:56:44;;;;;;;25.82;13.03;;;;;;;-0.17;94.33;100056.28;1715028;82;20585;-65
2020/12/24 09:59:11;;;;;;;28.65;14.00;;;;;;;-0.18;94.29;100048.05;1726156;81;21629;-64
2020/12/24 10:01:40;;;;;;;28.27;13.10;;;;;;;-0.22;94.35;100047.19;1722213;82;21185;-66
2020/12/24 10:04:08;;;;;;;32.25;16.40;;;;;;;-0.18;94.32;100044.17;1709174;83;21668;-67
2020/12/24 10:06:37;;;;;;;24.70;13.50;;;;;;;-0.17;94.26;100047.22;1708996;83;21197;-66
2020/12/24 10:09:05;;;;;;;21.68;10.65;;;;;;;-0.15;94.27;100033.86;1709019;83;21278;-66
2020/12/24 10:11:33;;;;;;;23.85;12.58;;;;;;;-0.17;94.10;100029.09;1708903;83;21741;-67
2020/12/24 10:14:01;;;;;;;23.90;12.68;;;;;;;-0.15;94.05;100029.54;1709083;83;21261;-66
2020/12/24 10:16:39;;;;;;;27.43;13.20;;;;;;;-0.05;94.05;100026.55;1832410;76;23368;-65
2020/12/24 10:19:07;;;;;;;23.98;9.75;;;;;;;-0.08;94.00;100017.49;1768324;80;21107;-67
2020/12/24 10:21:35;;;;;;;20.77;10.98;;;;;;;-0.10;93.83;100002.38;1751269;81;21299;-67
2020/12/24 10:24:05;;;;;;;21.48;11.45;;;;;;;-0.09;93.74;100004.98;1752898;80;21234;-66
2020/12/24 10:26:41;;;;;;;17.60;10.85;;;;;;;-0.12;93.66;100002.80;1715358;83;21167;-65
2020/12/24 10:29:08;;;;;;;20.70;11.70;;;;;;;-0.10;93.63;99999.79;1732623;82;21670;-67
2020/12/24 10:31:43;;;;;;;21.12;10.32;;;;;;;-0.12;93.67;99998.48;1715490;83;21575;-66
2020/12/24 10:34:11;;;;;;;23.18;9.78;;;;;;;-0.09;93.58;100002.80;1713956;83;21349;-66
2020/12/24 10:36:39;;;;;;;26.97;12.75;;;;;;;-0.05;93.46;99996.78;1715452;83;21713;-65
2020/12/24 10:39:09;;;;;;;23.60;12.70;;;;;;;-0.08;93.39;99990.31;1727692;82;21126;-65
2020/12/24 10:41:38;;;;;;;23.62;10.75;;;;;;;-0.06;93.37;99978.24;1717591;82;21246;-64
2020/12/24 10:44:08;;;;;;;21.55;11.33;;;;;;;-0.06;93.30;99988.59;1729654;82;21150;-66
2020/12/24 10:46:36;;;;;;;25.20;12.00;;;;;;;-0.09;93.36;99981.69;1733972;82;21369;-64
2020/12/24 10:49:04;;;;;;;25.32;12.73;;;;;;;-0.13;93.52;99971.31;1733845;82;21190;-65
2020/12/24 10:51:33;;;;;;;23.67;11.80;;;;;;;-0.14;93.69;99976.90;1727078;82;21198;-64
2020/12/24 10:54:02;;;;;;;21.77;11.18;;;;;;;-0.14;93.84;99965.25;1715642;82;21163;-63
2020/12/24 10:56:30;;;;;;;30.48;13.95;;;;;;;-0.11;93.91;99964.42;1715897;82;21186;-62
2020/12/24 10:58:58;;;;;;;30.52;12.60;;;;;;;-0.12;93.97;99960.09;1716466;82;23593;-63
2020/12/24 11:01:25;;;;;;;30.48;12.78;;;;;;;-0.14;93.92;99961.80;1706265;82;21221;-64
2020/12/24 11:03:56;;;;;;;25.65;13.83;;;;;;;-0.16;93.93;99960.93;1717430;82;21201;-62
2020/12/24 11:06:27;;;;;;;28.55;12.93;;;;;;;-0.21;94.08;99953.14;1704213;82;21727;-64
2020/12/24 11:08:55;;;;;;;36.60;14.65;;;;;;;-0.25;94.23;99947.11;1716173;82;21191;-63
2020/12/24 11:11:22;;;;;;;28.92;12.82;;;;;;;-0.30;94.43;99947.94;1718741;83;21384;-63
2020/12/24 11:13:50;;;;;;;27.45;13.18;;;;;;;-0.33;94.55;99948.79;1747579;82;21214;-64
2020/12/24 11:16:22;;;;;;;28.10;12.95;;;;;;;-0.39;94.68;99937.14;1717031;82;21746;-63
2020/12/24 11:18:50;;;;;;;26.42;12.88;;;;;;;-0.40;94.76;99934.09;1724756;81;21224;-63
2020/12/24 11:21:19;;;;;;;30.32;13.53;;;;;;;-0.42;94.89;99931.93;1724595;81;21208;-63
2020/12/24 11:23:49;;;;;;;31.55;15.45;;;;;;;-0.47;95.03;99935.80;1724901;81;21470;-63
2020/12/24 11:26:24;;;;;;;31.07;16.15;;;;;;;-0.48;95.13;99929.34;1723703;83;21144;-63
2020/12/24 11:28:52;;;;;;;28.98;12.25;;;;;;;-0.49;95.25;99935.35;1671450;84;21688;-64